Du har inga inställningar för hoppväder.nu

Hoppväder.nu

Senast uppdaterat 00:31

UTC-tid

2019-10-20 kl. 22:31


Sol och måne

Solen går upp 7:49 och går ner 18:26 (beräknade cirkatider)
Nästa fullmåne blir om 22 dagar (2019-11-12)

METAR

ESMQ (Kalmar)
(11 minuter sedan)
ESMQ 202220Z AUTO 28001KT 0500 R16/P1500N R34/P1500N FEW084/// 10/10 Q1015=



ESMX (Växjö)
(11 minuter sedan)
ESMX 202220Z AUTO 00000KT 3700 BCFG OVC130/// 06/06 Q1015=



ESMK (Ronneby)
(11 minuter sedan)
ESMK 202220Z AUTO 00000KT 0450 R01/P2000D R19/P2000N BCFG FEW080/// 10/10 Q1015 RERA=



ESSV (Visby)
(11 minuter sedan)
ESSV 202220Z AUTO 27004KT 2500 SCT003/// OVC016/// 11/11 Q1014=






TAF

ESMQ (Kalmar)
(301 minuter sedan)
ESMQ 201730Z 2018/2022 VRB02KT 5000 MIFG NSC PROB40 2018/2022 0400 FG VV002=



ESMX (Växjö)
(301 minuter sedan)
ESMX 201730Z 2018/2021 VRB02KT 9999 MIFG NSC TEMPO 2018/2021 0500 FG VV002=



ESMK (Ronneby)
(318 minuter sedan)
ESMK 201713Z 2018/2020 VRB02KT 9999 FEW020 BECMG 2018/2020 4000 BR=



ESSV (Visby)
(271 minuter sedan)
ESSV AMD 201800Z 2018/2022 22005KT 0300 FG VV002 PROB40 2018/2022 5000 SCT002 BKN030=





Kodnycklar till TAF och METAR






LHP

(Borglanda är område K1a i Sydöstra delen)

Prognos är inte uppdaterad




Spotting

Hur fungerar spotthjälpen och Vindkartan?

Markvind är ca 0 m/s.



Vindkartan

Senast uppdaterad 00:31




All data kommer från LFV.se